San Aurelio — A8PC9 — position and weather

sailwx.info

Track history (hours):
 
Tides and Currents Weather Stations Pressure Air Temp Water Temp Dewpoint Dewpoint Depression Visibility Wind Speed Wind Dir Waves Ship Positions

San Aurelio

Last reported at 2014-Dec-22 20:25 UTC. Time now 2014-Dec-23 03:39 UTC.
Position N 01°16' E 104°15'.

Length 186 m; draft 10.5 m.

Type: Cargo ship. MMSI: 636091534.

Date/timePositionNaut miles runAvg speedWind from/ knotsBaromVisibWave heightAir tempDewpointWater temp
2014-Dec-22 20:25N 01°16' E 104°15'1315.2
2014-Dec-22 19:33N 01°14' E 104°02'29 1.1
2014-Dec-21 16:28N 01°15' E 103°33'0 0.1
2014-Dec-21 15:28N 01°15' E 103°33'0 0.0
2014-Dec-21 14:22N 01°15' E 103°33'0 0.1
2014-Dec-21 13:19N 01°15' E 103°33'7 2.7
2014-Dec-21 10:33N 01°11' E 103°39'1312.3
2014-Dec-21 09:32N 01°12' E 103°52'4 4.2
2014-Dec-21 08:33N 01°16' E 103°50'0 0.0
2014-Dec-21 07:22N 01°16' E 103°50'0 0.0
2014-Dec-21 06:04N 01°16' E 103°50'0 0.0
2014-Dec-21 05:04N 01°16' E 103°50'0 0.0
2014-Dec-21 01:22N 01°16' E 103°50'0 0.0
2014-Dec-20 21:10N 01°16' E 103°50'0 0.0
2014-Dec-20 20:28N 01°16' E 103°50'0 0.0
2014-Dec-20 19:22N 01°16' E 103°50'0 0.1
2014-Dec-20 18:28N 01°16' E 103°50'0 0.1
2014-Dec-20 17:16N 01°16' E 103°50'0 0.0
2014-Dec-20 16:16N 01°16' E 103°50'0 0.0
2014-Dec-20 14:04N 01°16' E 103°50'0 0.0
2014-Dec-20 13:16N 01°16' E 103°50'0 0.0
2014-Dec-20 12:28N 01°16' E 103°50'0 0.0
2014-Dec-20 09:28N 01°16' E 103°50'0 0.0
2014-Dec-20 08:22N 01°16' E 103°50'0 0.0
2014-Dec-20 07:04N 01°16' E 103°50'0 0.0
2014-Dec-20 05:13N 01°16' E 103°50'0 0.0
2014-Dec-20 04:16N 01°16' E 103°50'0 0.0
2014-Dec-20 03:28N 01°16' E 103°50'1 0.9
2014-Dec-20 02:33N 01°15' E 103°51'7 7.0
2014-Dec-20 01:33N 01°15' E 103°58'1111.0
2014-Dec-20 00:32N 01°17' E 104°09'9915.1
2014-Dec-19 18:00N 01°24' E 105°48'20817.3 250 / 141010.010.8 1.028.024.328.0
2014-Dec-19 06:00N 03°18' E 108°42'70914.8 070 / 81010.210.8 2.029.524.829.0
2014-Dec-17 06:00N 07°30' E 119°48'19416.2 040 / 171008.010.8 2.029.524.829.0
2014-Dec-16 18:00N 06°30' E 122°54'   020 / 41008.510.8 0.528.024.629.0
Track history (hours):
 
Tides and Currents Weather Stations Pressure Air Temp Water Temp Dewpoint Dewpoint Depression Visibility Wind Speed Wind Dir Waves Ship Positions

San Aurelio

Last reported at 2014-Dec-22 20:25 UTC. Time now 2014-Dec-23 03:39 UTC.
Position N 01°16' E 104°15'.

Length 186 m; draft 10.5 m.

Type: Cargo ship. MMSI: 636091534.

Date/timePositionNaut miles runAvg speedWind from/ knotsBaromVisibWave heightAir tempDewpointWater temp
2014-Dec-22 20:25N 01°16' E 104°15'1315.2
2014-Dec-22 19:33N 01°14' E 104°02'29 1.1
2014-Dec-21 16:28N 01°15' E 103°33'0 0.1
2014-Dec-21 15:28N 01°15' E 103°33'0 0.0
2014-Dec-21 14:22N 01°15' E 103°33'0 0.1
2014-Dec-21 13:19N 01°15' E 103°33'7 2.7
2014-Dec-21 10:33N 01°11' E 103°39'1312.3
2014-Dec-21 09:32N 01°12' E 103°52'4 4.2
2014-Dec-21 08:33N 01°16' E 103°50'0 0.0
2014-Dec-21 07:22N 01°16' E 103°50'0 0.0
2014-Dec-21 06:04N 01°16' E 103°50'0 0.0
2014-Dec-21 05:04N 01°16' E 103°50'0 0.0
2014-Dec-21 01:22N 01°16' E 103°50'0 0.0
2014-Dec-20 21:10N 01°16' E 103°50'0 0.0
2014-Dec-20 20:28N 01°16' E 103°50'0 0.0
2014-Dec-20 19:22N 01°16' E 103°50'0 0.1
2014-Dec-20 18:28N 01°16' E 103°50'0 0.1
2014-Dec-20 17:16N 01°16' E 103°50'0 0.0
2014-Dec-20 16:16N 01°16' E 103°50'0 0.0
2014-Dec-20 14:04N 01°16' E 103°50'0 0.0
2014-Dec-20 13:16N 01°16' E 103°50'0 0.0
2014-Dec-20 12:28N 01°16' E 103°50'0 0.0
2014-Dec-20 09:28N 01°16' E 103°50'0 0.0
2014-Dec-20 08:22N 01°16' E 103°50'0 0.0
2014-Dec-20 07:04N 01°16' E 103°50'0 0.0
2014-Dec-20 05:13N 01°16' E 103°50'0 0.0
2014-Dec-20 04:16N 01°16' E 103°50'0 0.0
2014-Dec-20 03:28N 01°16' E 103°50'1 0.9
2014-Dec-20 02:33N 01°15' E 103°51'7 7.0
2014-Dec-20 01:33N 01°15' E 103°58'1111.0
2014-Dec-20 00:32N 01°17' E 104°09'9915.1
2014-Dec-19 18:00N 01°24' E 105°48'20817.3 250 / 141010.010.8 1.028.024.328.0
2014-Dec-19 06:00N 03°18' E 108°42'70914.8 070 / 81010.210.8 2.029.524.829.0
2014-Dec-17 06:00N 07°30' E 119°48'19416.2 040 / 171008.010.8 2.029.524.829.0
2014-Dec-16 18:00N 06°30' E 122°54'   020 / 41008.510.8 0.528.024.629.0

Dump ship's entire track history